Independence, Kansas
Current Conditions -  °F | °C
As of 10:55 PM on Friday 19 Dec 2014 (Local Time) from KIDP Reporting Station
Haze Haze  
Wind Chill: 36°   Ceiling: 2800
Heat Index: 36°   Visibility: 4mi
Dew Point: 34°   Wind: 0mph
Humidity: 93%   Direction: NA
Pressure: 30.23"   Gusts: NA
Location:  37.23°N, 95.71°W
Report Text: KIDP 200455Z AUTO 00000KT 4SM BR OVC028 02/01 A3023 RMK AO2
Loading
Personal Weather Stations






























Interactive Weather Map New forecast layout! Learn more

10-Day Weather Forecast

Advertisements
Track Severe Weather on mobile